OMDBORMM

Guest
Details From OMDB - Dubai Intl
To ORMM - Basrah Intl
Flight Number -
Tags Generated
Created
Modified
Stats Distance 518 nm / 959 km
Max Altitude 0 ft / 0 m
Waypoints 3
Social Downloads 1
Likes 0
Share VATSIM

Download

Looking for another format? Having issues loading an existing format? Contact us
Advertisement - Login to hide

Notes

Generated

Route

OMDB R2617 ORMM

ID Type Via Altitude Latitude Longitude Leg Dist Tot Dist Heading (true) Name
O OMDB APT - 0 ft / 0 m 25.26213˚ 55.34757˚ - 0 nm - -
R2617 FIX - 0 ft / 0 m 30.53550˚ 47.67633˚ 515 nm 515 nm 310° / 306° -
O ORMM APT - 0 ft / 0 m 30.56217˚ 47.64850˚ 2 nm 517 nm 318° / 318° -

Altitude Profile

Advertisement - Login to hide

Weather


0- 5 10 15 20 25 30 35+ Temperature / ° C

Clouds and Precipitation
Forecast for 2018-05-22 12:00 UTC. Updated an hour ago

Ground ~20,000 ft ~40,000 ft Winds

OMDB

Details ICAO OMDB (DXB)
Name DUBAI INTL
Region United Arab Emirates
Timezone Asia/Dubai (UTC+4.0)
Stats Elevation 62 ft / 19 m (AMSL)
Location 25.254912° 55.364260°
Runways 2
Magnetic Variation 2.068° E

METAR

OMDB 221000Z 34014KT CAVOK 39/08 Q1009 NOSIG

Decode

TAF

TAF OMDB 220500Z 2206/2312 20005KT CAVOK BECMG 2207/2209 34012KT BECMG 2216/2218 07005KT BECMG 2303/2305 18010KT BECMG 2308/2310 30010KT

Decode

Departure Runways

ID Width Length Bearing (true) Bearing (mag) Surface Threshold Offset Overrun Length
12L 197 ft / 60 m 13,124 ft / 4,000 m 121.49° 119.42° Asphalt 1,312 ft / 400 m 395 ft / 120 m
12R 151 ft / 46 m 13,139 ft / 4,005 m 121.48° 119.41° Asphalt 394 ft / 120 m 197 ft / 60 m
30L 151 ft / 46 m 13,139 ft / 4,005 m 301.50° 299.43° Asphalt 2,953 ft / 900 m 197 ft / 60 m
30R 197 ft / 60 m 13,124 ft / 4,000 m 301.51° 299.44° Asphalt 0 ft / 0 m 395 ft / 120 m

ORMM

Details ICAO ORMM (BSR)
Name BASRAH INTL
Region Iraq
Timezone Asia/Baghdad (UTC+3.0)
Stats Elevation 11 ft / 3 m (AMSL)
Location 30.548834° 47.662416°
Runways 1
Magnetic Variation 3.871° E

METAR

ORMM 220900Z 33008KT CAVOK 41/03 Q1010 NOSIG

Decode

TAF

TAF ORMM 220400Z 2206/2306 15005KT 6000 NSC TEMPO 2208/2212 24010KT 8000 FEW040 SCT100

Decode

Destination Runways

ID Width Length Bearing (true) Bearing (mag) Surface Threshold Offset Overrun Length
14 148 ft / 45 m 13,084 ft / 3,988 m 138.04° 134.17° Concrete 0 ft / 0 m 300 ft / 91 m
32 148 ft / 45 m 13,084 ft / 3,988 m 318.06° 314.19° Concrete 0 ft / 0 m 300 ft / 91 m

Approach Navaids

Runway Type Ident Frequency Range Bearing (true) Bearing (mag) Slope Elevation
14 Localiser BLA 110.70 MHz 18 nm / 33 km 137.97° 134.10° - 14 ft / 4 m (AMSL)
14 Glidescope BLA 110.70 MHz 10 nm / 19 km 138.05° 134.18° 3.00° 11 ft / 3 m (AMSL)
32 Localiser BAL 110.30 MHz 18 nm / 33 km 317.89° 314.02° - 12 ft / 4 m (AMSL)
32 Glidescope BAL 110.30 MHz 10 nm / 19 km 318.05° 314.18° 3.00° 8 ft / 2 m (AMSL)

Popular Alternatives